createdAt,value
2023-05-02T00:01:27.939Z,78.45
2023-05-02T00:03:55.631Z,77.17
2023-05-02T00:06:23.226Z,77.99
2023-05-02T00:08:50.770Z,78.29
2023-05-02T00:11:18.204Z,76.04
2023-05-02T00:13:46.962Z,75.86
2023-05-02T00:16:14.362Z,75.00
2023-05-02T00:18:41.750Z,77.56
2023-05-02T00:21:09.498Z,76.65
2023-05-02T00:23:36.853Z,76.78
2023-05-02T00:26:04.265Z,77.13
2023-05-02T00:28:33.353Z,75.81
2023-05-02T00:31:02.191Z,78.86
2023-05-02T00:33:29.559Z,80.99
2023-05-02T00:35:56.929Z,79.06
2023-05-02T00:38:24.299Z,79.06
2023-05-02T00:40:52.881Z,79.68
2023-05-02T00:43:21.175Z,79.70
2023-05-02T00:45:49.216Z,79.45
2023-05-02T00:48:20.491Z,79.89
2023-05-02T00:50:47.893Z,84.29
2023-05-02T00:53:16.116Z,82.72
2023-05-02T00:55:43.909Z,83.58
2023-05-02T00:58:13.241Z,81.36
2023-05-02T01:00:51.581Z,81.12
2023-05-02T01:03:30.251Z,81.41
2023-05-02T01:06:12.734Z,83.15
2023-05-02T01:08:48.828Z,83.13
2023-05-02T01:11:21.378Z,82.90
2023-05-02T01:13:50.212Z,85.97
2023-05-02T01:16:21.262Z,87.50
2023-05-02T01:18:51.270Z,86.22
2023-05-02T01:21:18.750Z,85.03
2023-05-02T01:23:54.057Z,82.90
2023-05-02T01:26:34.654Z,79.38
2023-05-02T01:29:04.820Z,79.21
2023-05-02T01:31:37.736Z,78.21
2023-05-02T01:34:09.971Z,77.42
2023-05-02T01:36:42.719Z,76.66
2023-05-02T01:39:11.953Z,75.85
2023-05-02T01:41:41.736Z,76.95
2023-05-02T01:44:12.284Z,75.25
2023-05-02T01:46:43.011Z,76.44
2023-05-02T01:49:11.772Z,77.18
2023-05-02T01:51:45.079Z,79.76
2023-05-02T01:54:14.690Z,78.37
2023-05-02T01:56:43.527Z,78.66
2023-05-02T01:59:15.066Z,80.29
2023-05-02T02:01:44.836Z,79.40
2023-05-02T02:04:15.675Z,80.48
2023-05-02T02:06:47.586Z,82.24
2023-05-02T02:09:15.471Z,81.72
2023-05-02T02:11:47.291Z,80.79
2023-05-02T02:14:20.941Z,80.44
2023-05-02T02:16:50.851Z,80.99
2023-05-02T02:19:19.261Z,80.62
2023-05-02T02:21:49.331Z,80.78
2023-05-02T02:24:19.703Z,81.20
2023-05-02T02:26:47.368Z,80.85
2023-05-02T02:29:15.004Z,81.55
2023-05-02T02:31:43.818Z,79.69
2023-05-02T02:34:11.303Z,80.63
2023-05-02T02:36:46.861Z,79.92
2023-05-02T02:39:26.264Z,81.08
2023-05-02T02:42:04.595Z,81.05
2023-05-02T02:44:40.876Z,83.66
2023-05-02T02:47:13.054Z,85.66
2023-05-02T02:49:49.814Z,83.88
2023-05-02T02:52:23.487Z,86.70
2023-05-02T02:54:57.661Z,85.06
2023-05-02T02:57:29.554Z,84.44
2023-05-02T03:00:03.845Z,88.52
2023-05-02T03:02:34.001Z,87.97
2023-05-02T03:05:03.392Z,85.21
2023-05-02T03:07:31.453Z,83.62
2023-05-02T03:09:59.091Z,84.47
2023-05-02T03:12:26.548Z,84.17
2023-05-02T03:14:55.934Z,83.23
2023-05-02T03:17:26.173Z,80.76
2023-05-02T03:19:57.463Z,80.62
2023-05-02T03:22:24.997Z,79.24
2023-05-02T03:24:52.410Z,78.97
2023-05-02T03:27:19.775Z,76.57
2023-05-02T03:29:47.762Z,75.51
2023-05-02T03:32:15.208Z,76.16
2023-05-02T03:34:42.647Z,75.27
2023-05-02T03:37:11.328Z,75.73
2023-05-02T03:39:38.755Z,74.34
2023-05-02T03:42:06.481Z,75.40
2023-05-02T03:44:33.877Z,75.95
2023-05-02T03:47:01.320Z,74.85
2023-05-02T03:49:28.861Z,74.63
2023-05-02T03:51:56.325Z,75.47
2023-05-02T03:54:25.121Z,75.65
2023-05-02T03:56:54.499Z,75.54
2023-05-02T03:59:21.901Z,75.50
2023-05-02T04:01:50.084Z,75.86
2023-05-02T04:04:17.598Z,75.15
2023-05-02T04:06:45.526Z,77.04
2023-05-02T04:09:13.040Z,76.45
2023-05-02T04:11:41.981Z,76.78
2023-05-02T04:14:09.374Z,77.05
2023-05-02T04:16:36.802Z,77.42
2023-05-02T04:19:04.245Z,77.75
2023-05-02T04:21:31.865Z,76.41
2023-05-02T04:23:59.254Z,76.50
2023-05-02T04:26:26.976Z,76.73
2023-05-02T04:28:55.962Z,75.29
2023-05-02T04:31:23.466Z,75.47
2023-05-02T04:33:50.846Z,75.14
2023-05-02T04:36:19.041Z,73.68
2023-05-02T04:38:46.518Z,74.68
2023-05-02T04:41:13.954Z,74.19
2023-05-02T04:43:41.469Z,73.57
2023-05-02T04:46:10.214Z,73.69
2023-05-02T04:48:41.866Z,72.85
2023-05-02T04:51:09.581Z,73.64
2023-05-02T04:53:37.206Z,72.37
2023-05-02T04:56:05.083Z,73.40
2023-05-02T04:58:32.538Z,70.93
2023-05-02T05:00:59.908Z,72.14
2023-05-02T05:03:29.873Z,71.61
2023-05-02T05:05:58.029Z,70.30
2023-05-02T05:08:25.424Z,70.79
2023-05-02T05:10:52.941Z,70.32
2023-05-02T05:13:20.378Z,71.78
2023-05-02T05:15:48.747Z,70.20
2023-05-02T05:18:16.369Z,70.14
2023-05-02T05:20:45.121Z,69.94
2023-05-02T05:23:12.532Z,69.07
2023-05-02T05:25:40.365Z,70.96
2023-05-02T05:28:07.779Z,69.56
2023-05-02T05:30:35.171Z,68.92
2023-05-02T05:33:02.628Z,68.69
2023-05-02T05:35:30.073Z,67.54
2023-05-02T05:37:58.795Z,67.74
2023-05-02T05:40:26.236Z,67.24
2023-05-02T05:42:53.586Z,66.80
2023-05-02T05:45:21.237Z,66.05
2023-05-02T05:47:48.664Z,67.41
2023-05-02T05:50:16.325Z,66.10
2023-05-02T05:52:43.723Z,65.46
2023-05-02T05:55:12.595Z,65.33
2023-05-02T05:57:39.995Z,68.31
2023-05-02T06:00:08.799Z,66.90
2023-05-02T06:02:36.434Z,65.78
2023-05-02T06:05:04.243Z,65.86
2023-05-02T06:07:31.805Z,66.10
2023-05-02T06:09:59.276Z,66.19
2023-05-02T06:12:28.190Z,65.29
2023-05-02T06:14:55.556Z,65.54
2023-05-02T06:17:23.212Z,64.72
2023-05-02T06:19:50.579Z,63.21
2023-05-02T06:22:18.032Z,62.16
2023-05-02T06:24:45.535Z,62.79
2023-05-02T06:27:12.953Z,60.35
2023-05-02T06:29:41.697Z,61.28
2023-05-02T06:32:10.050Z,58.84
2023-05-02T06:34:37.504Z,61.09
2023-05-02T06:37:04.912Z,59.72
2023-05-02T06:39:32.347Z,60.95
2023-05-02T06:41:59.946Z,62.40
2023-05-02T06:44:27.364Z,61.98
2023-05-02T06:46:56.398Z,60.80
2023-05-02T06:49:23.900Z,59.92
2023-05-02T06:51:51.309Z,59.52
2023-05-02T06:54:18.744Z,60.48
2023-05-02T06:56:46.136Z,59.60
2023-05-02T06:59:13.627Z,61.08
2023-05-02T07:01:41.049Z,59.81
2023-05-02T07:04:10.066Z,60.92
2023-05-02T07:06:37.519Z,59.10
2023-05-02T07:09:05.037Z,60.42
2023-05-02T07:11:32.381Z,59.23
2023-05-02T07:13:59.766Z,59.36
2023-05-02T07:16:27.237Z,59.14
2023-05-02T07:18:54.735Z,58.73
2023-05-02T07:21:23.637Z,58.61
2023-05-02T07:23:51.157Z,60.01
2023-05-02T07:26:18.874Z,59.16
2023-05-02T07:28:46.375Z,59.08
2023-05-02T07:31:13.752Z,58.43
2023-05-02T07:33:41.147Z,57.84
2023-05-02T07:36:08.900Z,58.64
2023-05-02T07:38:37.644Z,57.52
2023-05-02T07:41:05.088Z,58.93
2023-05-02T07:43:32.585Z,59.46
2023-05-02T07:46:04.468Z,61.80
2023-05-02T07:48:32.242Z,62.62
2023-05-02T07:51:07.128Z,62.61
2023-05-02T07:53:34.785Z,62.91
2023-05-02T07:56:04.408Z,61.39
2023-05-02T07:58:31.790Z,64.89
2023-05-02T08:00:59.553Z,62.84
2023-05-02T08:03:28.227Z,62.75
2023-05-02T08:05:55.750Z,63.82
2023-05-02T08:08:23.197Z,63.82
2023-05-02T08:10:51.275Z,62.51
2023-05-02T08:13:20.129Z,63.88
2023-05-02T08:15:47.508Z,63.92
2023-05-02T08:18:15.055Z,62.16
2023-05-02T08:20:44.021Z,63.21
2023-05-02T08:23:11.534Z,62.43
2023-05-02T08:25:38.910Z,59.61
2023-05-02T08:28:06.497Z,58.62
2023-05-02T08:30:35.304Z,56.76
2023-05-02T08:33:02.687Z,57.45
2023-05-02T08:35:30.654Z,58.85
2023-05-02T08:37:58.217Z,58.29
2023-05-02T08:40:40.562Z,57.67
2023-05-02T08:43:08.816Z,56.44
2023-05-02T08:45:46.312Z,55.89
2023-05-02T08:48:16.756Z,56.06
2023-05-02T08:50:48.042Z,54.89
2023-05-02T08:53:17.711Z,56.23
2023-05-02T08:55:45.209Z,55.99
2023-05-02T08:58:14.690Z,55.57
2023-05-02T09:00:44.927Z,55.68
2023-05-02T09:03:23.806Z,58.75
2023-05-02T09:05:54.790Z,59.72
2023-05-02T09:08:26.068Z,56.99
2023-05-02T09:10:53.641Z,55.52
2023-05-02T09:13:32.052Z,54.36
2023-05-02T09:16:02.246Z,52.28
2023-05-02T09:18:31.503Z,49.77
2023-05-02T09:21:00.780Z,52.49
2023-05-02T09:23:39.296Z,51.16
2023-05-02T09:26:18.431Z,53.79
2023-05-02T09:28:47.131Z,52.97
2023-05-02T09:31:26.995Z,52.97
2023-05-02T09:34:09.837Z,53.09
2023-05-02T09:36:41.585Z,53.79
2023-05-02T09:39:11.097Z,52.41
2023-05-02T09:41:41.570Z,51.42
2023-05-02T09:44:11.723Z,50.64
2023-05-02T09:46:44.714Z,54.47
2023-05-02T09:49:14.549Z,54.87
2023-05-02T09:51:43.901Z,55.94
2023-05-02T09:54:11.580Z,55.02
2023-05-02T09:56:56.486Z,54.81
2023-05-02T09:59:25.111Z,52.53
2023-05-02T10:01:58.379Z,54.95
2023-05-02T10:04:26.999Z,51.86
2023-05-02T10:06:55.450Z,51.81
2023-05-02T10:09:23.438Z,54.61
2023-05-02T10:11:53.817Z,55.00
2023-05-02T10:14:22.465Z,53.68
2023-05-02T10:16:56.321Z,53.93
2023-05-02T10:19:30.674Z,56.08
2023-05-02T10:21:58.952Z,54.76
2023-05-02T10:24:27.609Z,56.58
2023-05-02T10:26:55.696Z,59.10
2023-05-02T10:29:23.464Z,59.25
2023-05-02T10:31:51.525Z,56.73
2023-05-02T10:34:19.741Z,55.15
2023-05-02T10:36:48.817Z,56.02
2023-05-02T10:39:16.400Z,53.88
2023-05-02T10:41:44.924Z,56.13
2023-05-02T10:44:12.387Z,56.08
2023-05-02T10:46:41.551Z,53.96
2023-05-02T10:49:10.849Z,51.45
2023-05-02T10:51:40.281Z,52.75
2023-05-02T10:54:22.865Z,50.60
2023-05-02T10:57:05.518Z,55.79
2023-05-02T10:59:34.398Z,55.62
2023-05-02T11:02:03.116Z,53.93
2023-05-02T11:05:00.632Z,53.80
2023-05-02T11:07:29.662Z,53.40
2023-05-02T11:10:29.105Z,55.03
2023-05-02T11:13:00.841Z,53.35
2023-05-02T11:15:59.768Z,52.53
2023-05-02T11:18:27.301Z,55.31
2023-05-02T11:21:28.628Z,54.88
2023-05-02T11:24:29.510Z,54.81
2023-05-02T11:27:43.403Z,51.60
2023-05-02T11:30:12.813Z,54.66
2023-05-02T11:33:18.005Z,52.53
2023-05-02T11:35:46.774Z,53.42
2023-05-02T11:38:16.503Z,53.75
2023-05-02T11:40:58.104Z,55.18
2023-05-02T11:43:31.226Z,54.09
2023-05-02T11:46:00.530Z,52.76
2023-05-02T11:48:28.772Z,52.92
2023-05-02T11:50:58.172Z,52.91
2023-05-02T11:53:28.832Z,53.64
2023-05-02T11:55:58.089Z,55.75
2023-05-02T11:58:29.677Z,54.03
2023-05-02T12:00:57.957Z,53.77
2023-05-02T12:03:29.215Z,53.91
2023-05-02T12:05:57.360Z,55.18
2023-05-02T12:08:27.355Z,54.99
2023-05-02T12:10:55.960Z,54.04
2023-05-02T12:13:24.735Z,54.54
2023-05-02T12:15:55.040Z,54.15
2023-05-02T12:18:24.521Z,54.22
2023-05-02T12:20:52.859Z,53.98
2023-05-02T12:23:21.872Z,52.19
2023-05-02T12:25:49.663Z,53.28
2023-05-02T12:28:19.445Z,55.54
2023-05-02T12:30:49.374Z,58.16
2023-05-02T12:33:18.688Z,55.93
2023-05-02T12:35:47.765Z,55.37
2023-05-02T12:38:16.896Z,55.77
2023-05-02T12:40:49.570Z,55.49
2023-05-02T12:43:17.084Z,55.23
2023-05-02T12:45:44.548Z,53.56
2023-05-02T12:48:24.889Z,53.82
2023-05-02T12:50:53.312Z,54.33
2023-05-02T12:53:39.358Z,54.98
2023-05-02T12:56:07.870Z,54.48
2023-05-02T12:58:43.302Z,55.23
2023-05-02T13:01:11.063Z,53.83
2023-05-02T13:03:41.884Z,53.29
2023-05-02T13:06:09.868Z,52.89
2023-05-02T13:08:39.840Z,52.94
2023-05-02T13:11:11.869Z,52.52
2023-05-02T13:13:41.530Z,51.86
2023-05-02T13:16:14.329Z,53.72
2023-05-02T13:18:45.588Z,53.10
2023-05-02T13:21:17.477Z,52.86
2023-05-02T13:23:45.900Z,52.47
2023-05-02T13:26:15.410Z,52.33
2023-05-02T13:28:42.897Z,52.37
2023-05-02T13:31:10.446Z,54.48
2023-05-02T13:33:37.867Z,53.05
2023-05-02T13:36:07.065Z,51.79
2023-05-02T13:38:34.913Z,52.87
2023-05-02T13:41:02.497Z,50.46
2023-05-02T13:43:29.907Z,52.82
2023-05-02T13:45:57.551Z,52.30
2023-05-02T13:48:25.341Z,54.16
2023-05-02T13:50:52.688Z,53.57
2023-05-02T13:53:21.390Z,53.37
2023-05-02T13:55:49.167Z,54.94
2023-05-02T13:58:16.564Z,55.44
2023-05-02T14:00:43.974Z,56.28
2023-05-02T14:03:12.080Z,56.27
2023-05-02T14:05:43.468Z,56.99
2023-05-02T14:08:11.240Z,57.47
2023-05-02T14:10:40.741Z,56.10
2023-05-02T14:13:08.154Z,57.17
2023-05-02T14:15:35.557Z,57.46
2023-05-02T14:18:03.027Z,56.09
2023-05-02T14:20:30.520Z,56.78
2023-05-02T14:22:58.000Z,56.64
2023-05-02T14:25:25.563Z,54.93
2023-05-02T14:27:54.308Z,56.71
2023-05-02T14:30:21.862Z,55.42
2023-05-02T14:32:49.317Z,57.16
2023-05-02T14:35:16.691Z,56.13
2023-05-02T14:37:45.498Z,54.64
2023-05-02T14:40:13.993Z,56.02
2023-05-02T14:42:41.614Z,56.66
2023-05-02T14:45:11.405Z,55.86
2023-05-02T14:47:38.976Z,55.53
2023-05-02T14:50:07.648Z,56.75
2023-05-02T14:52:35.055Z,58.92
2023-05-02T14:55:03.038Z,59.11
2023-05-02T14:57:30.807Z,61.44
2023-05-02T14:59:58.306Z,62.83
2023-05-02T15:02:27.336Z,63.30
2023-05-02T15:04:54.868Z,64.00
2023-05-02T15:07:22.595Z,66.99
2023-05-02T15:09:50.267Z,69.58
2023-05-02T15:12:17.717Z,70.40
2023-05-02T15:14:45.098Z,68.58
2023-05-02T15:17:13.102Z,69.33
2023-05-02T15:19:41.832Z,69.26
2023-05-02T15:22:09.247Z,68.54
2023-05-02T15:24:36.616Z,69.86
2023-05-02T15:27:04.241Z,68.39
2023-05-02T15:29:31.774Z,70.80
2023-05-02T15:31:59.272Z,69.19
2023-05-02T15:34:26.841Z,70.57
2023-05-02T15:36:57.867Z,68.96
2023-05-02T15:39:27.857Z,70.86
2023-05-02T15:41:55.331Z,69.53
2023-05-02T15:44:22.828Z,68.06
2023-05-02T15:46:50.326Z,67.95
2023-05-02T15:49:18.696Z,65.79
2023-05-02T15:51:46.093Z,63.82
2023-05-02T15:54:14.873Z,62.23
2023-05-02T15:56:42.332Z,63.01
2023-05-02T15:59:10.017Z,62.84
2023-05-02T16:01:37.521Z,64.07
2023-05-02T16:04:06.839Z,63.80
2023-05-02T16:06:34.566Z,63.42
2023-05-02T16:09:03.628Z,65.63
2023-05-02T16:11:32.950Z,65.71
2023-05-02T16:14:00.817Z,66.15
2023-05-02T16:16:28.953Z,67.30
2023-05-02T16:18:56.373Z,68.16
2023-05-02T16:21:23.772Z,68.64
2023-05-02T16:23:51.351Z,68.39
2023-05-02T16:26:20.204Z,69.74
2023-05-02T16:28:48.904Z,69.11
2023-05-02T16:31:16.359Z,67.76
2023-05-02T16:33:43.767Z,66.92
2023-05-02T16:36:11.259Z,66.78
2023-05-02T16:38:38.639Z,67.49
2023-05-02T16:41:07.102Z,69.05
2023-05-02T16:43:34.831Z,67.94
2023-05-02T16:46:05.184Z,67.12
2023-05-02T16:48:33.170Z,66.18
2023-05-02T16:51:03.262Z,67.37
2023-05-02T16:53:31.922Z,66.14
2023-05-02T16:55:59.557Z,66.16
2023-05-02T16:58:29.545Z,66.32
2023-05-02T17:00:57.348Z,66.11
2023-05-02T17:03:26.733Z,65.08
2023-05-02T17:05:54.143Z,64.43
2023-05-02T17:08:21.593Z,65.89
2023-05-02T17:10:50.084Z,65.56
2023-05-02T17:13:17.571Z,65.58
2023-05-02T17:15:45.084Z,65.67
2023-05-02T17:18:12.629Z,64.92
2023-05-02T17:20:41.588Z,66.77
2023-05-02T17:23:09.756Z,66.74
2023-05-02T17:25:38.166Z,67.50
2023-05-02T17:28:05.612Z,67.37
2023-05-02T17:30:33.958Z,67.77
2023-05-02T17:33:01.394Z,66.50
2023-05-02T17:35:30.662Z,66.44
2023-05-02T17:37:59.380Z,65.82
2023-05-02T17:40:27.277Z,65.97
2023-05-02T17:42:55.329Z,64.94
2023-05-02T17:45:22.796Z,63.81
2023-05-02T17:47:50.272Z,63.95
2023-05-02T17:50:17.862Z,62.90
2023-05-02T17:52:45.615Z,62.05
2023-05-02T17:55:14.369Z,61.92
2023-05-02T17:57:43.656Z,61.36
2023-05-02T18:00:12.130Z,61.68
2023-05-02T18:02:39.906Z,61.06
2023-05-02T18:05:08.003Z,61.04
2023-05-02T18:07:35.433Z,61.06
2023-05-02T18:10:04.995Z,60.76
2023-05-02T18:12:35.729Z,60.77
2023-05-02T18:15:05.056Z,60.83
2023-05-02T18:17:32.946Z,61.05
2023-05-02T18:20:00.719Z,61.08
2023-05-02T18:22:28.386Z,61.54
2023-05-02T18:24:56.522Z,62.68
2023-05-02T18:27:23.980Z,62.78
2023-05-02T18:29:54.373Z,63.43
2023-05-02T18:32:21.882Z,63.48
2023-05-02T18:34:49.310Z,63.01
2023-05-02T18:37:16.692Z,63.54
2023-05-02T18:39:44.079Z,62.67
2023-05-02T18:42:13.024Z,63.52
2023-05-02T18:44:40.402Z,62.87
2023-05-02T18:47:09.808Z,63.91
2023-05-02T18:49:37.165Z,62.74
2023-05-02T18:52:08.640Z,62.99
2023-05-02T18:54:36.188Z,63.57
2023-05-02T18:57:03.643Z,63.18
2023-05-02T18:59:31.160Z,63.79
2023-05-02T19:01:59.638Z,63.81
2023-05-02T19:04:31.387Z,62.25
2023-05-02T19:07:00.622Z,62.55
2023-05-02T19:09:29.629Z,62.66
2023-05-02T19:11:57.058Z,62.15
2023-05-02T19:14:24.516Z,61.91
2023-05-02T19:16:51.914Z,62.67
2023-05-02T19:19:19.448Z,63.00
2023-05-02T19:21:49.131Z,61.75
2023-05-02T19:27:09.961Z,62.10
2023-05-02T19:29:37.364Z,62.75
2023-05-02T19:32:08.636Z,61.83
2023-05-02T19:34:36.838Z,61.89
2023-05-02T19:37:05.641Z,61.85
2023-05-02T19:39:33.032Z,60.29
2023-05-02T19:42:00.446Z,62.50
2023-05-02T19:44:27.892Z,61.73
2023-05-02T19:46:55.317Z,61.35
2023-05-02T19:49:22.763Z,61.72
2023-05-02T19:51:50.397Z,61.69
2023-05-02T19:54:22.671Z,62.21
2023-05-02T19:56:50.292Z,62.72
2023-05-02T19:59:17.768Z,62.29
2023-05-02T20:01:46.716Z,62.37
2023-05-02T20:04:14.357Z,63.28
2023-05-02T20:06:42.055Z,63.04
2023-05-02T20:09:09.494Z,62.99
2023-05-02T20:11:38.211Z,62.22
2023-05-02T20:14:05.939Z,62.10
2023-05-02T20:16:33.431Z,62.63
2023-05-02T20:19:00.826Z,62.76
2023-05-02T20:21:28.181Z,63.06
2023-05-02T20:23:55.573Z,61.85
2023-05-02T20:26:23.357Z,63.00
2023-05-02T20:28:52.073Z,64.12
2023-05-02T20:31:19.511Z,63.34
2023-05-02T20:33:47.333Z,63.44
2023-05-02T20:36:15.654Z,64.24
2023-05-02T20:38:44.594Z,63.43
2023-05-02T20:41:13.824Z,63.34
2023-05-02T20:43:47.606Z,63.53
2023-05-02T20:46:17.112Z,63.06
2023-05-02T20:48:44.530Z,64.07
2023-05-02T20:51:12.004Z,63.40
2023-05-02T20:53:39.850Z,63.56
2023-05-02T20:56:07.838Z,63.01
2023-05-02T20:58:35.376Z,62.49
2023-05-02T21:01:02.830Z,62.10
2023-05-02T21:03:32.038Z,62.67
2023-05-02T21:06:00.145Z,63.50
2023-05-02T21:08:27.673Z,62.52
2023-05-02T21:10:55.060Z,63.04
2023-05-02T21:13:22.697Z,62.93
2023-05-02T21:15:50.164Z,63.29
2023-05-02T21:18:17.727Z,64.03
2023-05-02T21:20:49.723Z,62.77
2023-05-02T21:23:17.134Z,62.45
2023-05-02T21:25:44.516Z,62.70
2023-05-02T21:28:11.946Z,63.09
2023-05-02T21:30:39.301Z,62.38
2023-05-02T21:33:06.794Z,63.83
2023-05-02T21:35:34.381Z,62.82
2023-05-02T21:38:03.076Z,62.70
2023-05-02T21:40:31.780Z,63.15
2023-05-02T21:42:59.257Z,62.63
2023-05-02T21:45:26.655Z,61.74
2023-05-02T21:47:54.274Z,63.35
2023-05-02T21:50:22.536Z,63.91
2023-05-02T21:52:50.614Z,63.58
2023-05-02T21:55:19.375Z,64.54
2023-05-02T21:57:46.812Z,64.27
2023-05-02T22:00:14.899Z,64.27
2023-05-02T22:02:42.444Z,64.38
2023-05-02T22:05:11.409Z,64.51
2023-05-02T22:07:38.795Z,63.69
2023-05-02T22:10:08.022Z,64.00
2023-05-02T22:12:36.719Z,64.37
2023-05-02T22:15:07.248Z,64.22
2023-05-02T22:17:34.806Z,64.35
2023-05-02T22:20:04.129Z,64.26
2023-05-02T22:22:31.745Z,64.16
2023-05-02T22:24:59.116Z,64.26
2023-05-02T22:27:26.533Z,64.54
2023-05-02T22:29:55.248Z,64.41
2023-05-02T22:32:23.557Z,64.92
2023-05-02T22:34:50.970Z,64.94
2023-05-02T22:37:18.442Z,64.83
2023-05-02T22:39:45.811Z,65.29
2023-05-02T22:42:13.218Z,64.61
2023-05-02T22:44:53.227Z,64.07
2023-05-02T22:47:22.783Z,64.42
2023-05-02T22:49:50.894Z,64.31
2023-05-02T22:52:20.445Z,64.34
2023-05-02T22:54:47.973Z,65.15
2023-05-02T22:57:15.385Z,65.90
2023-05-02T22:59:42.802Z,66.30
2023-05-02T23:02:11.635Z,65.93
2023-05-02T23:04:40.401Z,66.20
2023-05-02T23:07:07.797Z,65.03
2023-05-02T23:09:35.462Z,66.13
2023-05-02T23:12:03.800Z,66.58
2023-05-02T23:14:31.203Z,65.91
2023-05-02T23:16:58.592Z,66.47
2023-05-02T23:19:26.356Z,66.97
2023-05-02T23:21:55.063Z,66.06
2023-05-02T23:24:22.489Z,65.72
2023-05-02T23:26:49.837Z,66.08
2023-05-02T23:29:17.257Z,66.58
2023-05-02T23:31:44.980Z,67.09
2023-05-02T23:34:12.950Z,65.81
2023-05-02T23:36:40.820Z,66.62
2023-05-02T23:39:09.834Z,66.76
2023-05-02T23:41:37.220Z,65.44
2023-05-02T23:44:05.329Z,66.12
2023-05-02T23:46:32.751Z,66.05
2023-05-02T23:49:00.171Z,64.99
2023-05-02T23:51:28.644Z,64.79
2023-05-02T23:53:56.049Z,65.45
2023-05-02T23:56:24.770Z,65.06
2023-05-02T23:58:52.140Z,65.89
